createdAt,value
2022-10-03T00:02:10.943Z,15.90
2022-10-03T00:05:02.692Z,15.90
2022-10-03T00:07:43.910Z,15.90
2022-10-03T00:10:23.599Z,15.90
2022-10-03T00:13:05.448Z,15.80
2022-10-03T00:15:40.818Z,15.80
2022-10-03T00:18:20.399Z,15.90
2022-10-03T00:21:01.388Z,15.90
2022-10-03T00:23:42.540Z,15.90
2022-10-03T00:26:30.822Z,15.90
2022-10-03T00:29:34.137Z,16.00
2022-10-03T00:32:11.147Z,16.10
2022-10-03T00:34:49.287Z,16.10
2022-10-03T00:37:28.376Z,16.10
2022-10-03T00:40:24.452Z,16.00
2022-10-03T00:43:31.727Z,16.10
2022-10-03T00:46:27.080Z,16.00
2022-10-03T00:49:22.729Z,16.00
2022-10-03T00:52:05.617Z,16.10
2022-10-03T00:54:52.662Z,16.00
2022-10-03T00:57:49.036Z,15.90
2022-10-03T01:00:21.269Z,16.00
2022-10-03T01:03:02.498Z,15.90
2022-10-03T01:05:46.366Z,15.90
2022-10-03T01:08:49.119Z,16.00
2022-10-03T01:11:28.312Z,15.90
2022-10-03T01:14:06.685Z,15.80
2022-10-03T01:16:55.136Z,15.80
2022-10-03T01:19:37.492Z,15.90
2022-10-03T01:22:22.046Z,15.90
2022-10-03T01:24:58.462Z,15.90
2022-10-03T01:27:57.857Z,16.00
2022-10-03T01:30:29.934Z,16.00
2022-10-03T01:33:04.213Z,16.00
2022-10-03T01:35:41.112Z,16.00
2022-10-03T01:38:20.681Z,15.90
2022-10-03T01:40:54.968Z,15.90
2022-10-03T01:43:32.212Z,15.90
2022-10-03T01:46:12.480Z,15.90
2022-10-03T01:48:48.775Z,15.80
2022-10-03T01:51:22.704Z,15.80
2022-10-03T01:54:02.923Z,15.90
2022-10-03T01:56:36.816Z,15.90
2022-10-03T01:59:09.599Z,15.90
2022-10-03T02:01:48.920Z,15.90
2022-10-03T02:04:29.792Z,15.90
2022-10-03T02:07:05.592Z,15.90
2022-10-03T02:09:40.520Z,15.90
2022-10-03T02:12:14.179Z,15.80
2022-10-03T02:14:51.047Z,15.80
2022-10-03T02:17:30.520Z,15.70
2022-10-03T02:20:08.095Z,15.70
2022-10-03T02:22:42.451Z,15.70
2022-10-03T02:25:21.444Z,15.60
2022-10-03T02:28:16.806Z,15.50
2022-10-03T02:31:01.760Z,15.50
2022-10-03T02:33:55.297Z,15.40
2022-10-03T02:36:55.029Z,15.40
2022-10-03T02:39:56.307Z,15.40
2022-10-03T02:42:59.239Z,15.50
2022-10-03T02:45:59.667Z,15.60
2022-10-03T02:49:16.389Z,15.50
2022-10-03T02:52:00.450Z,15.60
2022-10-03T02:55:05.602Z,15.70
2022-10-03T02:58:14.123Z,15.70
2022-10-03T03:01:03.425Z,15.70
2022-10-03T03:03:52.264Z,15.70
2022-10-03T03:06:39.040Z,15.70
2022-10-03T03:09:45.285Z,15.70
2022-10-03T03:12:53.517Z,15.70
2022-10-03T03:16:06.372Z,15.70
2022-10-03T03:18:38.579Z,15.70
2022-10-03T03:21:30.420Z,15.70
2022-10-03T03:24:23.323Z,15.70
2022-10-03T03:27:19.314Z,15.70
2022-10-03T03:29:59.547Z,15.70
2022-10-03T03:32:37.942Z,15.70
2022-10-03T03:35:14.163Z,15.80
2022-10-03T03:37:53.289Z,15.80
2022-10-03T03:40:35.856Z,15.80
2022-10-03T03:43:26.029Z,16.00
2022-10-03T03:46:06.492Z,16.00
2022-10-03T03:49:01.254Z,16.00
2022-10-03T03:51:39.811Z,15.90
2022-10-03T03:54:41.355Z,15.90
2022-10-03T03:57:33.035Z,15.90
2022-10-03T04:00:13.417Z,16.00
2022-10-03T04:03:01.707Z,16.00
2022-10-03T04:05:46.088Z,16.00
2022-10-03T04:08:27.085Z,16.10
2022-10-03T04:11:12.221Z,16.10
2022-10-03T04:14:07.326Z,16.20
2022-10-03T04:17:08.083Z,16.20
2022-10-03T04:19:53.461Z,16.10
2022-10-03T04:22:33.500Z,16.10
2022-10-03T04:25:42.992Z,16.10
2022-10-03T04:28:34.245Z,16.10
2022-10-03T04:31:25.087Z,16.10
2022-10-03T04:34:06.108Z,16.10
2022-10-03T04:36:55.495Z,16.20
2022-10-03T04:39:31.323Z,16.20
2022-10-03T04:42:09.609Z,16.30
2022-10-03T04:44:50.363Z,16.10
2022-10-03T04:47:27.141Z,16.20
2022-10-03T04:50:02.067Z,16.10
2022-10-03T04:52:39.289Z,16.10
2022-10-03T04:55:20.652Z,16.10
2022-10-03T04:57:53.887Z,16.20
2022-10-03T05:00:29.907Z,16.10
2022-10-03T05:03:06.416Z,16.00
2022-10-03T05:05:55.056Z,15.90
2022-10-03T05:08:39.522Z,15.60
2022-10-03T05:11:21.571Z,15.50
2022-10-03T05:14:03.559Z,15.50
2022-10-03T05:16:40.256Z,15.50
2022-10-03T05:19:41.548Z,15.50
2022-10-03T05:22:17.011Z,15.50
2022-10-03T05:24:51.523Z,15.50
2022-10-03T05:27:29.488Z,15.50
2022-10-03T05:30:03.512Z,15.60
2022-10-03T05:32:39.891Z,15.70
2022-10-03T05:35:25.719Z,15.80
2022-10-03T05:38:10.835Z,15.80
2022-10-03T05:40:41.979Z,15.80
2022-10-03T05:43:24.747Z,15.80
2022-10-03T05:46:02.010Z,15.90
2022-10-03T05:48:43.434Z,15.80
2022-10-03T05:51:39.560Z,15.80
2022-10-03T05:54:43.572Z,16.00
2022-10-03T05:57:40.436Z,16.10
2022-10-03T06:00:19.507Z,16.20
2022-10-03T06:03:17.396Z,16.10
2022-10-03T06:06:01.558Z,16.10
2022-10-03T06:08:51.803Z,16.00
2022-10-03T06:11:35.893Z,16.00
2022-10-03T06:14:24.898Z,16.10
2022-10-03T06:17:04.041Z,16.10
2022-10-03T06:19:46.976Z,15.90
2022-10-03T06:22:44.368Z,15.80
2022-10-03T06:25:57.756Z,15.80
2022-10-03T06:29:02.927Z,15.80
2022-10-03T06:32:09.048Z,16.00
2022-10-03T06:35:09.531Z,16.10
2022-10-03T06:38:09.910Z,16.00
2022-10-03T06:41:14.452Z,16.10
2022-10-03T06:43:54.003Z,16.00
2022-10-03T06:46:48.598Z,16.00
2022-10-03T06:49:43.920Z,16.00
2022-10-03T06:52:26.371Z,15.90
2022-10-03T06:55:27.783Z,15.90
2022-10-03T06:58:38.941Z,15.90
2022-10-03T07:01:45.166Z,16.00
2022-10-03T07:04:44.134Z,16.00
2022-10-03T07:07:49.930Z,16.10
2022-10-03T07:10:29.439Z,16.00
2022-10-03T07:13:29.569Z,16.00
2022-10-03T07:16:28.404Z,15.90
2022-10-03T07:19:22.820Z,16.00
2022-10-03T07:22:41.505Z,16.10
2022-10-03T07:25:30.282Z,16.10
2022-10-03T07:28:35.064Z,16.00
2022-10-03T07:31:17.799Z,16.00
2022-10-03T07:34:22.411Z,16.10
2022-10-03T07:37:20.465Z,16.20
2022-10-03T07:40:16.490Z,16.20
2022-10-03T07:43:08.960Z,16.10
2022-10-03T07:45:40.912Z,16.10
2022-10-03T07:48:52.847Z,16.10
2022-10-03T07:51:24.986Z,16.10
2022-10-03T07:54:24.398Z,16.20
2022-10-03T07:57:24.250Z,16.30
2022-10-03T08:00:22.538Z,16.20
2022-10-03T08:03:37.545Z,16.10
2022-10-03T08:06:16.789Z,16.10
2022-10-03T08:09:14.352Z,16.10
2022-10-03T08:12:32.455Z,16.10
2022-10-03T08:15:11.325Z,16.10
2022-10-03T08:18:31.127Z,16.20
2022-10-03T08:21:02.240Z,16.10
2022-10-03T08:24:14.628Z,16.20
2022-10-03T08:27:14.238Z,16.30
2022-10-03T08:30:15.086Z,16.40
2022-10-03T08:33:15.587Z,16.40
2022-10-03T08:36:26.935Z,16.50
2022-10-03T08:39:19.214Z,16.60
2022-10-03T08:42:22.234Z,16.50
2022-10-03T08:45:21.983Z,16.60
2022-10-03T08:48:25.015Z,16.60
2022-10-03T08:51:17.934Z,16.60
2022-10-03T08:54:14.544Z,16.60
2022-10-03T08:57:00.470Z,16.70
2022-10-03T09:00:00.788Z,16.70
2022-10-03T09:03:28.571Z,16.70
2022-10-03T09:06:24.323Z,16.80
2022-10-03T09:09:18.342Z,17.10
2022-10-03T09:12:18.934Z,16.80
2022-10-03T09:15:11.998Z,16.70
2022-10-03T09:18:16.362Z,16.70
2022-10-03T09:21:33.674Z,16.70
2022-10-03T09:24:44.633Z,16.60
2022-10-03T09:27:26.868Z,16.60
2022-10-03T09:30:24.037Z,16.70
2022-10-03T09:33:26.791Z,16.70
2022-10-03T09:36:35.703Z,16.80
2022-10-03T09:39:59.774Z,16.80
2022-10-03T09:42:45.791Z,16.70
2022-10-03T09:45:27.781Z,16.70
2022-10-03T09:48:37.409Z,16.70
2022-10-03T09:51:30.864Z,16.70
2022-10-03T09:54:50.772Z,16.70
2022-10-03T09:57:56.735Z,16.80
2022-10-03T10:00:28.241Z,16.70
2022-10-03T10:03:34.773Z,16.70
2022-10-03T10:06:23.960Z,16.70
2022-10-03T10:09:33.759Z,16.70
2022-10-03T10:12:45.443Z,16.80
2022-10-03T10:15:44.499Z,16.90
2022-10-03T10:18:39.117Z,16.90
2022-10-03T10:21:40.515Z,16.90
2022-10-03T10:24:37.754Z,16.70
2022-10-03T10:27:54.607Z,16.60
2022-10-03T10:30:44.452Z,16.90
2022-10-03T10:33:42.040Z,17.00
2022-10-03T10:37:14.563Z,17.20
2022-10-03T10:40:09.132Z,17.30
2022-10-03T10:43:08.268Z,17.30
2022-10-03T10:46:11.457Z,17.10
2022-10-03T10:49:25.611Z,17.10
2022-10-03T10:52:27.119Z,17.20
2022-10-03T10:55:31.730Z,17.30
2022-10-03T10:58:49.558Z,17.30
2022-10-03T11:01:47.154Z,17.40
2022-10-03T11:04:37.450Z,17.50
2022-10-03T11:07:45.333Z,17.50
2022-10-03T11:10:35.136Z,17.50
2022-10-03T11:13:55.829Z,17.50
2022-10-03T11:17:22.201Z,17.40
2022-10-03T11:20:29.433Z,17.60
2022-10-03T11:23:30.043Z,17.60
2022-10-03T11:26:47.149Z,17.60
2022-10-03T11:29:53.988Z,17.60
2022-10-03T11:33:05.294Z,17.50
2022-10-03T11:36:11.891Z,17.60
2022-10-03T11:38:49.242Z,17.60
2022-10-03T11:41:29.740Z,17.60
2022-10-03T11:44:21.493Z,17.60
2022-10-03T11:47:16.279Z,17.70
2022-10-03T11:50:11.113Z,17.50
2022-10-03T11:52:54.785Z,17.40
2022-10-03T11:55:32.305Z,17.20
2022-10-03T11:58:14.803Z,17.10
2022-10-03T12:00:45.174Z,17.20
2022-10-03T12:03:20.938Z,17.30
2022-10-03T12:06:17.575Z,17.40
2022-10-03T12:08:56.024Z,17.50
2022-10-03T12:11:28.224Z,17.80
2022-10-03T12:14:17.253Z,17.80
2022-10-03T12:17:00.639Z,17.90
2022-10-03T12:19:33.470Z,18.20
2022-10-03T12:22:13.726Z,18.30
2022-10-03T12:24:45.064Z,18.00
2022-10-03T12:27:22.574Z,18.20
2022-10-03T12:29:58.700Z,18.20
2022-10-03T12:32:42.102Z,18.30
2022-10-03T12:35:22.723Z,18.50
2022-10-03T12:38:04.713Z,18.50
2022-10-03T12:40:38.287Z,18.50
2022-10-03T12:43:21.726Z,18.60
2022-10-03T12:48:40.054Z,18.60
2022-10-03T12:51:22.862Z,18.60
2022-10-03T12:54:03.439Z,18.40
2022-10-03T12:56:42.188Z,18.30
2022-10-03T12:59:31.594Z,18.40
2022-10-03T13:02:27.988Z,18.60
2022-10-03T13:05:25.254Z,18.70
2022-10-03T13:07:58.415Z,18.80
2022-10-03T13:10:37.317Z,18.80
2022-10-03T13:13:23.027Z,18.80
2022-10-03T13:16:09.434Z,18.60
2022-10-03T13:18:49.194Z,18.40
2022-10-03T13:21:44.547Z,18.50
2022-10-03T13:24:20.535Z,18.40
2022-10-03T13:26:56.125Z,18.70
2022-10-03T13:29:30.014Z,18.80
2022-10-03T13:32:27.688Z,18.90
2022-10-03T13:35:25.209Z,18.90
2022-10-03T13:38:12.020Z,18.80
2022-10-03T13:40:46.295Z,18.40
2022-10-03T13:43:25.240Z,18.30
2022-10-03T13:45:56.860Z,18.30
2022-10-03T13:48:28.157Z,18.30
2022-10-03T13:51:02.159Z,18.40
2022-10-03T13:53:48.888Z,18.30
2022-10-03T13:56:26.282Z,18.30
2022-10-03T13:59:05.284Z,18.60
2022-10-03T14:01:46.786Z,18.70
2022-10-03T14:04:37.491Z,18.80
2022-10-03T14:07:15.764Z,18.70
2022-10-03T14:10:07.214Z,18.70
2022-10-03T14:12:55.661Z,18.90
2022-10-03T14:15:36.201Z,18.90
2022-10-03T14:18:16.625Z,18.90
2022-10-03T14:21:18.716Z,19.00
2022-10-03T14:23:54.346Z,19.10
2022-10-03T14:26:29.427Z,19.10
2022-10-03T14:29:02.792Z,19.00
2022-10-03T14:31:36.603Z,19.00
2022-10-03T14:34:15.012Z,19.20
2022-10-03T14:36:49.095Z,19.20
2022-10-03T14:39:38.498Z,19.10
2022-10-03T14:42:43.410Z,19.10
2022-10-03T14:45:16.232Z,18.80
2022-10-03T14:47:52.436Z,18.90
2022-10-03T14:50:25.511Z,18.90
2022-10-03T14:53:02.203Z,18.50
2022-10-03T14:55:34.045Z,18.50
2022-10-03T14:58:10.619Z,18.60
2022-10-03T15:00:44.065Z,18.40
2022-10-03T15:03:24.604Z,18.10
2022-10-03T15:06:02.842Z,18.00
2022-10-03T15:08:37.752Z,18.20
2022-10-03T15:11:07.554Z,18.40
2022-10-03T15:13:42.257Z,18.80
2022-10-03T15:16:14.444Z,18.80
2022-10-03T15:18:52.260Z,18.80
2022-10-03T15:21:20.546Z,18.20
2022-10-03T15:23:55.527Z,18.00
2022-10-03T15:26:26.872Z,18.20
2022-10-03T15:28:59.398Z,18.10
2022-10-03T15:31:35.934Z,18.20
2022-10-03T15:34:09.061Z,18.30
2022-10-03T15:36:41.054Z,18.50
2022-10-03T15:39:19.539Z,18.60
2022-10-03T15:41:54.466Z,18.70
2022-10-03T15:44:28.960Z,18.80
2022-10-03T15:47:01.575Z,18.80
2022-10-03T15:49:34.767Z,18.90
2022-10-03T15:52:16.513Z,18.90
2022-10-03T15:54:48.771Z,18.80
2022-10-03T15:57:26.841Z,18.90
2022-10-03T16:00:03.054Z,18.90
2022-10-03T16:02:36.508Z,18.80
2022-10-03T16:05:14.432Z,18.80
2022-10-03T16:07:50.405Z,18.60
2022-10-03T16:10:21.834Z,18.40
2022-10-03T16:13:03.933Z,18.20
2022-10-03T16:15:46.634Z,18.10
2022-10-03T16:18:46.866Z,18.00
2022-10-03T16:21:30.228Z,17.90
2022-10-03T16:24:00.555Z,17.90
2022-10-03T16:26:32.555Z,17.80
2022-10-03T16:29:10.412Z,17.80
2022-10-03T16:31:43.198Z,17.70
2022-10-03T16:34:16.267Z,17.70
2022-10-03T16:36:48.056Z,17.60
2022-10-03T16:39:22.575Z,17.50
2022-10-03T16:41:54.168Z,17.50
2022-10-03T16:44:26.252Z,17.60
2022-10-03T16:46:59.537Z,17.60
2022-10-03T16:49:59.864Z,17.60
2022-10-03T16:52:34.739Z,17.60
2022-10-03T16:55:06.206Z,17.50
2022-10-03T16:57:44.310Z,17.50
2022-10-03T17:00:18.748Z,17.50
2022-10-03T17:02:48.661Z,17.30
2022-10-03T17:05:18.467Z,17.30
2022-10-03T17:07:52.100Z,17.30
2022-10-03T17:10:32.663Z,17.20
2022-10-03T17:13:04.405Z,17.00
2022-10-03T17:15:36.407Z,16.90
2022-10-03T17:18:18.682Z,16.90
2022-10-03T17:20:50.620Z,17.00
2022-10-03T17:23:29.001Z,16.90
2022-10-03T17:26:10.576Z,16.90
2022-10-03T17:28:47.015Z,16.90
2022-10-03T17:31:30.468Z,16.80
2022-10-03T17:34:05.636Z,16.70
2022-10-03T17:37:07.244Z,16.70
2022-10-03T17:39:55.233Z,16.70
2022-10-03T17:42:42.988Z,16.60
2022-10-03T17:45:30.568Z,16.70
2022-10-03T17:48:04.882Z,16.80
2022-10-03T17:50:39.349Z,16.80
2022-10-03T17:53:14.934Z,16.90
2022-10-03T17:55:46.340Z,16.90
2022-10-03T17:58:16.627Z,17.10
2022-10-03T18:01:05.115Z,17.20
2022-10-03T18:03:40.447Z,17.40
2022-10-03T18:06:40.888Z,17.30
2022-10-03T18:09:19.604Z,17.20
2022-10-03T18:11:51.109Z,17.00
2022-10-03T18:14:33.035Z,17.00
2022-10-03T18:17:08.263Z,17.10
2022-10-03T18:19:53.719Z,17.20
2022-10-03T18:22:29.224Z,17.30
2022-10-03T18:25:23.860Z,17.50
2022-10-03T18:28:16.039Z,17.60
2022-10-03T18:30:49.906Z,17.50
2022-10-03T18:33:23.954Z,17.50
2022-10-03T18:35:52.459Z,17.30
2022-10-03T18:38:24.142Z,17.20
2022-10-03T18:40:56.327Z,17.30
2022-10-03T18:43:31.156Z,17.40
2022-10-03T18:46:10.393Z,17.50
2022-10-03T18:48:57.858Z,17.40
2022-10-03T18:51:38.235Z,17.10
2022-10-03T18:54:18.996Z,16.90
2022-10-03T18:57:00.387Z,16.80
2022-10-03T18:59:39.437Z,16.70
2022-10-03T19:02:19.761Z,16.60
2022-10-03T19:04:52.914Z,16.70
2022-10-03T19:07:25.095Z,16.80
2022-10-03T19:10:27.498Z,17.00
2022-10-03T19:13:02.939Z,17.00
2022-10-03T19:15:43.852Z,16.90
2022-10-03T19:18:22.400Z,17.00
2022-10-03T19:20:52.593Z,16.80
2022-10-03T19:23:26.506Z,16.70
2022-10-03T19:25:57.776Z,16.60
2022-10-03T19:28:30.351Z,16.50
2022-10-03T19:31:04.126Z,16.40
2022-10-03T19:33:33.761Z,16.20
2022-10-03T19:36:05.685Z,16.10
2022-10-03T19:38:36.979Z,16.10
2022-10-03T19:41:10.085Z,16.10
2022-10-03T19:43:41.737Z,16.20
2022-10-03T19:46:25.206Z,16.30
2022-10-03T19:49:15.270Z,16.40
2022-10-03T19:51:43.165Z,16.50
2022-10-03T19:54:14.601Z,16.60
2022-10-03T19:56:42.626Z,16.40
2022-10-03T19:59:17.621Z,16.20
2022-10-03T20:01:49.069Z,16.00
2022-10-03T20:04:36.298Z,16.00
2022-10-03T20:07:10.984Z,16.00
2022-10-03T20:09:42.402Z,16.00
2022-10-03T20:12:13.130Z,16.00
2022-10-03T20:14:42.707Z,16.10
2022-10-03T20:17:16.339Z,16.10
2022-10-03T20:19:54.665Z,16.10
2022-10-03T20:22:25.103Z,16.00
2022-10-03T20:24:53.184Z,15.70
2022-10-03T20:27:35.571Z,15.50
2022-10-03T20:30:26.448Z,15.40
2022-10-03T20:32:58.132Z,15.60
2022-10-03T20:35:28.163Z,15.90
2022-10-03T20:38:00.122Z,16.10
2022-10-03T20:40:35.810Z,16.10
2022-10-03T20:43:30.628Z,16.00
2022-10-03T20:46:15.803Z,15.90
2022-10-03T20:48:59.038Z,15.90
2022-10-03T20:51:39.972Z,15.80
2022-10-03T20:54:15.695Z,15.60
2022-10-03T20:56:55.573Z,15.30
2022-10-03T20:59:28.258Z,15.20
2022-10-03T21:02:05.361Z,14.90
2022-10-03T21:04:42.990Z,15.10
2022-10-03T21:07:25.361Z,15.00
2022-10-03T21:10:00.334Z,14.90
2022-10-03T21:12:30.550Z,14.80
2022-10-03T21:15:03.934Z,14.80
2022-10-03T21:17:34.026Z,14.90
2022-10-03T21:20:09.010Z,14.90
2022-10-03T21:22:37.893Z,14.90
2022-10-03T21:25:18.099Z,14.90
2022-10-03T21:27:50.285Z,14.90
2022-10-03T21:30:20.799Z,15.00
2022-10-03T21:32:57.447Z,14.80
2022-10-03T21:35:29.395Z,14.60
2022-10-03T21:38:16.358Z,14.50
2022-10-03T21:40:59.601Z,14.40
2022-10-03T21:43:41.738Z,14.30
2022-10-03T21:46:17.800Z,14.40
2022-10-03T21:49:27.776Z,14.50
2022-10-03T21:52:23.093Z,14.50
2022-10-03T21:55:11.061Z,14.50
2022-10-03T21:57:49.024Z,14.60
2022-10-03T22:00:18.172Z,14.50
2022-10-03T22:02:56.950Z,14.30
2022-10-03T22:05:33.483Z,14.20
2022-10-03T22:08:14.588Z,14.00
2022-10-03T22:10:58.100Z,14.00
2022-10-03T22:13:29.867Z,14.00
2022-10-03T22:16:03.390Z,13.90
2022-10-03T22:18:40.359Z,13.90
2022-10-03T22:21:15.668Z,13.80
2022-10-03T22:23:50.766Z,13.90
2022-10-03T22:26:24.872Z,13.90
2022-10-03T22:28:58.785Z,14.10
2022-10-03T22:31:32.668Z,14.10
2022-10-03T22:34:15.021Z,14.10
2022-10-03T22:36:44.467Z,14.00
2022-10-03T22:39:16.950Z,14.00
2022-10-03T22:41:47.902Z,14.30
2022-10-03T22:44:18.413Z,14.60
2022-10-03T22:46:51.543Z,14.80
2022-10-03T22:49:23.773Z,14.60
2022-10-03T22:51:55.593Z,14.30
2022-10-03T22:54:33.551Z,14.30
2022-10-03T22:57:06.252Z,14.20
2022-10-03T22:59:39.459Z,14.00
2022-10-03T23:02:10.453Z,13.90
2022-10-03T23:04:43.839Z,14.10
2022-10-03T23:07:44.146Z,14.20
2022-10-03T23:10:30.552Z,14.40
2022-10-03T23:13:04.283Z,14.60
2022-10-03T23:15:34.818Z,14.60
2022-10-03T23:18:43.330Z,14.60
2022-10-03T23:21:12.692Z,14.50
2022-10-03T23:24:00.570Z,14.60
2022-10-03T23:27:01.816Z,14.60
2022-10-03T23:29:29.696Z,14.60
2022-10-03T23:32:02.438Z,14.60
2022-10-03T23:35:07.743Z,14.40
2022-10-03T23:37:42.181Z,14.00
2022-10-03T23:40:28.575Z,14.10
2022-10-03T23:43:05.360Z,14.50
2022-10-03T23:45:36.227Z,14.80
2022-10-03T23:48:08.246Z,14.80
2022-10-03T23:50:40.931Z,14.80
2022-10-03T23:53:15.888Z,14.80
2022-10-03T23:55:45.678Z,14.70
2022-10-03T23:58:26.778Z,14.80
